Time;durP1;ratioP1;P1;durP2;ratioP2;P2;SDS_P1;SDS_P2;PMS_P1;PMS_P2;Temp;Humidity;BMP_temperature;BMP_pressure;BME280_temperature;BME280_humidity;BME280_pressure;Samples;Min_cycle;Max_cycle;Signal;HPM_P1;HPM_P2
2023/01/27 00:00:14;;;;;;;29.08;26.38;;;;;;;;;;5095670;28;20248;-81
2023/01/27 00:02:43;;;;;;;33.42;29.70;;;;;;;;;;5095175;28;20241;-81
2023/01/27 00:05:10;;;;;;;31.13;28.27;;;;;;;;;;5095765;28;20232;-81
2023/01/27 00:07:37;;;;;;;31.10;28.45;;;;;;;;;;5096504;28;20251;-80
2023/01/27 00:10:05;;;;;;;38.97;28.33;;;;;;;;;;5095996;28;20209;-80
2023/01/27 00:15:17;;;;;;;31.38;28.67;;;;;;;;;;5097660;28;20278;-79
2023/01/27 00:17:46;;;;;;;33.10;29.60;;;;;;;;;;5100372;28;20628;-81
2023/01/27 00:24:34;;;;;;;31.50;28.60;;;;;;;;;;5099554;28;20197;-80
2023/01/27 00:25:49;;;;;;;30.08;27.52;;;;;;;;;;5099536;28;20223;-79
2023/01/27 00:28:21;;;;;;;31.38;28.25;;;;;;;;;;5100400;28;20269;-81
2023/01/27 00:30:48;;;;;;;28.88;26.38;;;;;;;;;;5099907;28;20238;-80
2023/01/27 00:33:25;;;;;;;31.15;28.40;;;;;;;;;;5098947;28;20644;-80
2023/01/27 00:35:59;;;;;;;31.55;28.73;;;;;;;;;;5099821;28;20235;-81
2023/01/27 00:38:27;;;;;;;29.25;26.95;;;;;;;;;;5100083;28;20209;-79
2023/01/27 00:43:38;;;;;;;27.25;25.25;;;;;;;;;;5099670;28;20251;-81
2023/01/27 00:46:05;;;;;;;30.05;27.15;;;;;;;;;;5099474;28;20222;-81
2023/01/27 00:48:34;;;;;;;30.90;28.17;;;;;;;;;;5100237;28;20235;-80
2023/01/27 00:51:01;;;;;;;29.20;26.58;;;;;;;;;;5100405;28;20209;-80
2023/01/27 00:53:28;;;;;;;31.02;28.00;;;;;;;;;;5098754;28;20716;-80
2023/01/27 00:55:56;;;;;;;32.42;29.27;;;;;;;;;;5099430;28;20233;-80
2023/01/27 00:58:23;;;;;;;32.70;29.42;;;;;;;;;;5099971;28;20574;-80
2023/01/27 01:00:50;;;;;;;31.77;28.95;;;;;;;;;;5100175;28;20253;-79
2023/01/27 01:03:17;;;;;;;30.73;27.73;;;;;;;;;;5098505;28;20628;-81
2023/01/27 01:05:46;;;;;;;27.42;25.23;;;;;;;;;;5099320;28;20229;-80
2023/01/27 01:08:13;;;;;;;29.02;26.30;;;;;;;;;;5099013;28;20200;-80
2023/01/27 01:10:40;;;;;;;29.75;26.75;;;;;;;;;;5098783;28;20697;-81
2023/01/27 01:13:09;;;;;;;138.52;75.38;;;;;;;;;;5099015;28;20231;-81
2023/01/27 01:15:36;;;;;;;148.57;84.82;;;;;;;;;;5098813;28;20286;-80
2023/01/27 01:18:03;;;;;;;203.63;93.85;;;;;;;;;;5099607;28;20283;-80
2023/01/27 01:20:30;;;;;;;269.40;96.78;;;;;;;;;;5099676;28;20205;-79
2023/01/27 01:22:59;;;;;;;269.75;100.78;;;;;;;;;;5098369;28;20259;-79
2023/01/27 01:25:26;;;;;;;346.80;104.05;;;;;;;;;;5099653;28;20227;-80
2023/01/27 01:27:53;;;;;;;335.52;102.40;;;;;;;;;;5098365;28;20209;-79
2023/01/27 01:30:20;;;;;;;356.40;101.47;;;;;;;;;;5099016;28;20217;-81
2023/01/27 01:32:47;;;;;;;495.08;244.15;;;;;;;;;;5098763;28;20220;-81
2023/01/27 01:35:14;;;;;;;180.68;86.00;;;;;;;;;;5098342;28;20278;-79
2023/01/27 01:37:41;;;;;;;158.98;83.00;;;;;;;;;;5099505;28;20205;-79
2023/01/27 01:40:11;;;;;;;196.63;88.50;;;;;;;;;;5098816;28;20666;-79
2023/01/27 01:42:50;;;;;;;195.55;85.22;;;;;;;;;;5097763;28;20215;-81
2023/01/27 01:45:40;;;;;;;129.65;72.63;;;;;;;;;;5098897;28;20225;-80
2023/01/27 01:48:10;;;;;;;132.85;74.30;;;;;;;;;;5098601;28;20193;-79
2023/01/27 01:50:38;;;;;;;111.22;73.45;;;;;;;;;;5098967;28;20202;-82
2023/01/27 01:53:07;;;;;;;90.82;66.47;;;;;;;;;;5097999;28;20787;-80
2023/01/27 01:55:37;;;;;;;95.60;68.80;;;;;;;;;;5098057;28;20223;-79
2023/01/27 01:58:05;;;;;;;71.72;58.17;;;;;;;;;;5098518;28;20188;-80
2023/01/27 02:00:32;;;;;;;58.35;51.83;;;;;;;;;;5098728;28;20212;-80
2023/01/27 02:02:59;;;;;;;29.80;27.40;;;;;;;;;;5097917;28;20224;-79
2023/01/27 02:05:28;;;;;;;28.23;25.25;;;;;;;;;;5098748;28;20234;-79
2023/01/27 02:07:57;;;;;;;28.02;25.25;;;;;;;;;;5098657;28;20210;-80
2023/01/27 02:10:25;;;;;;;26.23;24.08;;;;;;;;;;5098173;28;20208;-79
2023/01/27 02:12:53;;;;;;;28.63;25.73;;;;;;;;;;5097732;28;20199;-80
2023/01/27 02:15:21;;;;;;;29.23;26.85;;;;;;;;;;5098127;28;20235;-79
2023/01/27 02:17:48;;;;;;;29.27;26.48;;;;;;;;;;5098024;28;20261;-79
2023/01/27 02:20:18;;;;;;;28.02;25.50;;;;;;;;;;5097788;28;20326;-80
2023/01/27 02:22:48;;;;;;;27.75;25.33;;;;;;;;;;5097980;28;20256;-79
2023/01/27 02:25:19;;;;;;;28.95;26.42;;;;;;;;;;5098163;28;20228;-80
2023/01/27 02:27:47;;;;;;;29.83;27.02;;;;;;;;;;5097519;28;20197;-81
2023/01/27 02:30:14;;;;;;;29.27;26.92;;;;;;;;;;5097246;28;20663;-80
2023/01/27 02:32:41;;;;;;;30.73;28.02;;;;;;;;;;5097335;28;20210;-79
2023/01/27 02:35:09;;;;;;;29.73;27.23;;;;;;;;;;5098932;28;20567;-80
2023/01/27 02:37:37;;;;;;;28.75;26.58;;;;;;;;;;5099201;28;20221;-78
2023/01/27 02:40:05;;;;;;;30.42;26.98;;;;;;;;;;5098241;28;20196;-78
2023/01/27 02:42:32;;;;;;;28.08;25.92;;;;;;;;;;5098425;28;20209;-79
2023/01/27 02:45:00;;;;;;;29.38;26.85;;;;;;;;;;5099984;28;20224;-80
2023/01/27 02:47:28;;;;;;;25.98;23.98;;;;;;;;;;5100254;28;20265;-79
2023/01/27 02:49:54;;;;;;;29.30;26.70;;;;;;;;;;5100803;28;20231;-79
2023/01/27 02:52:22;;;;;;;28.20;25.88;;;;;;;;;;5098703;28;20200;-78
2023/01/27 02:54:49;;;;;;;28.83;26.63;;;;;;;;;;5094715;28;20274;-84
2023/01/27 02:57:16;;;;;;;28.98;26.73;;;;;;;;;;5094007;28;20294;-78
2023/01/27 02:59:43;;;;;;;30.88;28.15;;;;;;;;;;5094906;28;20201;-78
2023/01/27 03:02:21;;;;;;;28.13;25.85;;;;;;;;;;5092765;28;20246;-78
2023/01/27 03:04:48;;;;;;;30.73;28.10;;;;;;;;;;5093446;28;20341;-77
2023/01/27 03:07:15;;;;;;;27.70;25.45;;;;;;;;;;5093553;28;20205;-79
2023/01/27 03:09:42;;;;;;;28.70;26.15;;;;;;;;;;5093533;28;20209;-76
2023/01/27 03:20:27;;;;;;;29.02;26.73;;;;;;;;;;5093188;28;20235;-77
2023/01/27 03:22:54;;;;;;;29.13;26.63;;;;;;;;;;5092794;28;20562;-77
2023/01/27 03:25:21;;;;;;;28.75;26.55;;;;;;;;;;5092393;28;20842;-79
2023/01/27 03:27:48;;;;;;;29.30;26.83;;;;;;;;;;5093029;28;20259;-77
2023/01/27 03:30:16;;;;;;;28.30;26.20;;;;;;;;;;5093115;28;20202;-78
2023/01/27 03:32:46;;;;;;;28.05;26.05;;;;;;;;;;5092853;28;20566;-78
2023/01/27 03:35:13;;;;;;;28.65;26.35;;;;;;;;;;5093231;28;20236;-78
2023/01/27 03:48:41;;;;;;;29.10;26.90;;;;;;;;;;5092941;28;20189;-77
2023/01/27 03:51:08;;;;;;;28.77;26.77;;;;;;;;;;5095693;28;20208;-78
2023/01/27 03:53:35;;;;;;;29.88;27.58;;;;;;;;;;5096536;28;20205;-77
2023/01/27 03:56:02;;;;;;;30.38;27.75;;;;;;;;;;5096685;28;20222;-78
2023/01/27 03:58:30;;;;;;;29.50;27.35;;;;;;;;;;5096731;28;20205;-77
2023/01/27 04:00:58;;;;;;;30.67;28.50;;;;;;;;;;5096659;28;20207;-78
2023/01/27 04:08:58;;;;;;;30.70;28.50;;;;;;;;;;5096545;28;20550;-78
2023/01/27 04:14:10;;;;;;;30.88;28.60;;;;;;;;;;5096601;28;20185;-77
2023/01/27 04:16:38;;;;;;;30.55;28.52;;;;;;;;;;5096689;28;20228;-79
2023/01/27 04:19:05;;;;;;;30.10;27.83;;;;;;;;;;5096535;28;20270;-77
2023/01/27 04:21:34;;;;;;;33.00;30.70;;;;;;;;;;5096143;28;20205;-77
2023/01/27 04:24:02;;;;;;;32.22;29.52;;;;;;;;;;5096294;28;20201;-77
2023/01/27 04:26:33;;;;;;;32.58;30.23;;;;;;;;;;5095637;28;20226;-78
2023/01/27 04:29:00;;;;;;;33.78;31.10;;;;;;;;;;5097174;28;20192;-78
2023/01/27 04:31:27;;;;;;;31.80;29.50;;;;;;;;;;5095692;28;20720;-78
2023/01/27 04:33:54;;;;;;;32.75;30.33;;;;;;;;;;5096449;28;20205;-78
2023/01/27 04:36:21;;;;;;;33.25;30.73;;;;;;;;;;5095938;28;20233;-78
2023/01/27 04:38:49;;;;;;;33.60;30.88;;;;;;;;;;5096258;28;20593;-78
2023/01/27 04:41:16;;;;;;;32.80;30.13;;;;;;;;;;5095090;28;20580;-77
2023/01/27 04:43:43;;;;;;;33.78;31.20;;;;;;;;;;5096149;28;20209;-77
2023/01/27 04:46:10;;;;;;;33.22;30.75;;;;;;;;;;5095848;28;20274;-77
2023/01/27 04:48:37;;;;;;;31.73;29.23;;;;;;;;;;5096119;28;20205;-77
2023/01/27 04:51:04;;;;;;;32.90;30.30;;;;;;;;;;5096059;28;20205;-78
2023/01/27 04:53:31;;;;;;;31.15;28.90;;;;;;;;;;5095470;28;20234;-78
2023/01/27 04:56:03;;;;;;;34.22;31.52;;;;;;;;;;5096212;28;20229;-77
2023/01/27 04:58:30;;;;;;;33.45;30.75;;;;;;;;;;5096047;28;20193;-77
2023/01/27 05:00:57;;;;;;;32.35;29.95;;;;;;;;;;5094694;28;20204;-79
2023/01/27 05:03:24;;;;;;;32.20;29.70;;;;;;;;;;5094477;28;20217;-77
2023/01/27 05:05:51;;;;;;;34.55;31.50;;;;;;;;;;5095613;28;20230;-77
2023/01/27 05:08:19;;;;;;;32.63;30.15;;;;;;;;;;5095742;28;20185;-77
2023/01/27 05:10:45;;;;;;;34.35;31.75;;;;;;;;;;5095564;28;20621;-77
2023/01/27 05:13:14;;;;;;;32.20;29.88;;;;;;;;;;5095312;28;20263;-77
2023/01/27 05:15:41;;;;;;;33.55;30.95;;;;;;;;;;5095042;28;20229;-77
2023/01/27 05:18:08;;;;;;;32.53;29.90;;;;;;;;;;5095810;28;20216;-77
2023/01/27 05:20:35;;;;;;;32.60;30.20;;;;;;;;;;5095459;28;20204;-77
2023/01/27 05:25:46;;;;;;;31.52;29.25;;;;;;;;;;5095303;28;20279;-78
2023/01/27 05:28:15;;;;;;;30.55;28.35;;;;;;;;;;5095404;28;20247;-77
2023/01/27 05:30:42;;;;;;;29.55;27.35;;;;;;;;;;5094558;28;20216;-77
2023/01/27 05:33:09;;;;;;;31.75;29.50;;;;;;;;;;5094457;28;20204;-77
2023/01/27 05:35:36;;;;;;;31.63;29.33;;;;;;;;;;5094889;28;20561;-77
2023/01/27 05:38:03;;;;;;;28.17;26.27;;;;;;;;;;5095090;28;20217;-78
2023/01/27 05:40:31;;;;;;;30.90;28.60;;;;;;;;;;5094320;28;20257;-77
2023/01/27 05:42:58;;;;;;;30.23;27.73;;;;;;;;;;5094674;28;20285;-77
2023/01/27 05:45:27;;;;;;;27.65;25.77;;;;;;;;;;5094641;28;20225;-78
2023/01/27 05:47:54;;;;;;;29.35;27.45;;;;;;;;;;5094851;28;20204;-78
2023/01/27 05:50:21;;;;;;;30.20;28.20;;;;;;;;;;5094856;28;20246;-77
2023/01/27 05:52:47;;;;;;;28.48;26.75;;;;;;;;;;5094062;28;20206;-78
2023/01/27 05:55:14;;;;;;;29.83;27.83;;;;;;;;;;5093883;28;20222;-79
2023/01/27 05:57:41;;;;;;;30.13;28.13;;;;;;;;;;5094843;28;20728;-78
2023/01/27 06:00:09;;;;;;;29.30;27.20;;;;;;;;;;5094568;28;20307;-78
2023/01/27 06:02:37;;;;;;;30.38;28.38;;;;;;;;;;5093570;28;20603;-77
2023/01/27 06:05:04;;;;;;;28.75;26.95;;;;;;;;;;5094387;28;20297;-77
2023/01/27 06:07:31;;;;;;;29.67;27.77;;;;;;;;;;5094328;28;20201;-78
2023/01/27 06:09:58;;;;;;;27.85;26.05;;;;;;;;;;5093792;28;20731;-80
2023/01/27 06:12:25;;;;;;;28.20;26.40;;;;;;;;;;5093288;28;20635;-78
2023/01/27 06:14:54;;;;;;;28.20;26.38;;;;;;;;;;5094156;28;20678;-78
2023/01/27 06:17:21;;;;;;;29.98;27.98;;;;;;;;;;5094252;28;20267;-77
2023/01/27 06:19:49;;;;;;;28.60;26.50;;;;;;;;;;5094492;28;20209;-77
2023/01/27 06:22:16;;;;;;;30.33;28.27;;;;;;;;;;5092896;28;20686;-77
2023/01/27 06:24:43;;;;;;;29.65;27.65;;;;;;;;;;5094108;28;20653;-77
2023/01/27 06:27:10;;;;;;;29.85;27.95;;;;;;;;;;5094049;28;20250;-78
2023/01/27 06:29:37;;;;;;;30.55;28.42;;;;;;;;;;5094145;28;20290;-78
2023/01/27 06:32:04;;;;;;;29.13;27.35;;;;;;;;;;5093397;28;20308;-78
2023/01/27 06:34:31;;;;;;;29.90;27.85;;;;;;;;;;5093345;28;20350;-78
2023/01/27 06:36:59;;;;;;;29.95;28.02;;;;;;;;;;5093988;28;20208;-78
2023/01/27 06:39:26;;;;;;;29.42;27.63;;;;;;;;;;5093615;28;20626;-77
2023/01/27 06:41:53;;;;;;;30.05;28.15;;;;;;;;;;5093577;28;20824;-78
2023/01/27 06:44:20;;;;;;;29.15;27.38;;;;;;;;;;5093845;28;20267;-78
2023/01/27 06:46:47;;;;;;;29.05;27.15;;;;;;;;;;5093935;28;20213;-77
2023/01/27 06:49:15;;;;;;;29.50;27.67;;;;;;;;;;5094142;28;20204;-78
2023/01/27 06:51:42;;;;;;;29.80;27.73;;;;;;;;;;5093158;28;20682;-79
2023/01/27 06:54:10;;;;;;;28.70;27.00;;;;;;;;;;5094401;28;20205;-79
2023/01/27 06:56:37;;;;;;;30.55;28.50;;;;;;;;;;5094236;28;20267;-78
2023/01/27 06:59:04;;;;;;;31.00;28.92;;;;;;;;;;5094232;28;20221;-79
2023/01/27 07:01:31;;;;;;;30.00;27.88;;;;;;;;;;5092843;28;20218;-78
2023/01/27 07:03:59;;;;;;;29.85;27.85;;;;;;;;;;5094537;28;20198;-78
2023/01/27 07:06:26;;;;;;;31.00;28.70;;;;;;;;;;5074048;28;20226;-79
2023/01/27 07:08:53;;;;;;;29.70;27.70;;;;;;;;;;5072409;28;20756;-78
2023/01/27 07:11:24;;;;;;;30.80;28.70;;;;;;;;;;5072395;28;20687;-79
2023/01/27 07:13:51;;;;;;;29.52;27.58;;;;;;;;;;5073269;28;20702;-78
2023/01/27 07:16:18;;;;;;;29.65;27.67;;;;;;;;;;5072179;28;20302;-77
2023/01/27 07:18:45;;;;;;;28.20;26.40;;;;;;;;;;5073207;28;20275;-78
2023/01/27 07:21:12;;;;;;;27.67;25.98;;;;;;;;;;5072975;28;20264;-79
2023/01/27 07:23:39;;;;;;;29.05;27.25;;;;;;;;;;5072866;28;20207;-77
2023/01/27 07:26:05;;;;;;;29.60;27.75;;;;;;;;;;5071661;28;20222;-77
2023/01/27 07:28:34;;;;;;;29.65;27.67;;;;;;;;;;5073140;28;20254;-77
2023/01/27 07:31:01;;;;;;;29.42;27.55;;;;;;;;;;5073070;28;20213;-78
2023/01/27 07:33:29;;;;;;;30.35;28.45;;;;;;;;;;5072005;28;20267;-78
2023/01/27 07:35:56;;;;;;;28.55;26.63;;;;;;;;;;5073050;28;20224;-77
2023/01/27 07:38:23;;;;;;;27.90;26.20;;;;;;;;;;5073095;28;20561;-78
2023/01/27 07:40:50;;;;;;;29.63;27.73;;;;;;;;;;5072458;28;20234;-77
2023/01/27 07:43:17;;;;;;;29.65;27.63;;;;;;;;;;5072498;28;20211;-75
2023/01/27 07:45:47;;;;;;;29.60;27.70;;;;;;;;;;5072692;28;20230;-76
2023/01/27 07:48:15;;;;;;;29.48;27.48;;;;;;;;;;5072578;28;20282;-75
2023/01/27 07:50:42;;;;;;;30.02;28.23;;;;;;;;;;5072501;28;20678;-78
2023/01/27 07:53:10;;;;;;;29.45;27.63;;;;;;;;;;5071715;28;20209;-77
2023/01/27 07:55:38;;;;;;;30.35;28.35;;;;;;;;;;5072933;28;20221;-78
2023/01/27 07:58:05;;;;;;;30.65;28.73;;;;;;;;;;5072312;28;20225;-76
2023/01/27 08:00:32;;;;;;;29.00;27.10;;;;;;;;;;5072507;28;20210;-77
2023/01/27 08:03:02;;;;;;;29.20;27.30;;;;;;;;;;5071707;28;20319;-76
2023/01/27 08:05:29;;;;;;;29.75;27.75;;;;;;;;;;5071944;28;20236;-76
2023/01/27 08:07:57;;;;;;;29.10;27.13;;;;;;;;;;5072137;28;20227;-76
2023/01/27 08:10:24;;;;;;;28.77;26.80;;;;;;;;;;5072123;28;20661;-76
2023/01/27 08:12:51;;;;;;;30.00;28.08;;;;;;;;;;5071256;28;20210;-75
2023/01/27 08:15:18;;;;;;;29.85;28.05;;;;;;;;;;5072270;28;20234;-77
2023/01/27 08:17:45;;;;;;;29.33;27.60;;;;;;;;;;5072055;28;20222;-76
2023/01/27 08:20:14;;;;;;;29.00;27.30;;;;;;;;;;5072135;28;20670;-76
2023/01/27 08:22:42;;;;;;;28.77;26.85;;;;;;;;;;5071928;28;20199;-76
2023/01/27 08:25:09;;;;;;;27.95;26.25;;;;;;;;;;5071433;28;20710;-76
2023/01/27 08:27:36;;;;;;;28.00;26.10;;;;;;;;;;5071124;28;20614;-77
2023/01/27 08:30:03;;;;;;;28.88;26.88;;;;;;;;;;5072152;28;20210;-76
2023/01/27 08:32:30;;;;;;;29.15;27.27;;;;;;;;;;5071825;28;20531;-77
2023/01/27 08:34:57;;;;;;;27.13;25.33;;;;;;;;;;5072235;28;20222;-77
2023/01/27 08:37:26;;;;;;;28.25;26.48;;;;;;;;;;5074675;28;20210;-76
2023/01/27 08:39:53;;;;;;;28.20;26.42;;;;;;;;;;5075585;28;20681;-77
2023/01/27 08:42:20;;;;;;;28.75;26.95;;;;;;;;;;5075252;28;20251;-76
2023/01/27 08:44:47;;;;;;;27.63;25.73;;;;;;;;;;5075515;28;20223;-76
2023/01/27 08:47:14;;;;;;;27.95;26.13;;;;;;;;;;5075780;28;20255;-77
2023/01/27 08:49:41;;;;;;;27.35;25.58;;;;;;;;;;5075590;28;20207;-76
2023/01/27 08:52:08;;;;;;;26.20;24.60;;;;;;;;;;5074680;28;20262;-75
2023/01/27 08:54:36;;;;;;;26.33;24.80;;;;;;;;;;5075086;28;20703;-75
2023/01/27 08:57:03;;;;;;;24.42;23.15;;;;;;;;;;5074766;28;20648;-75
2023/01/27 08:59:30;;;;;;;27.70;26.10;;;;;;;;;;5075249;28;20230;-75
2023/01/27 09:01:57;;;;;;;26.55;24.73;;;;;;;;;;5091340;28;20213;-76
2023/01/27 09:04:24;;;;;;;25.17;23.73;;;;;;;;;;5095775;28;20334;-76
2023/01/27 09:06:52;;;;;;;25.80;24.30;;;;;;;;;;5095396;28;20678;-76
2023/01/27 09:09:19;;;;;;;25.55;24.15;;;;;;;;;;5095831;28;20228;-77
2023/01/27 09:11:48;;;;;;;24.58;23.25;;;;;;;;;;5094805;28;20210;-76
2023/01/27 09:14:15;;;;;;;24.25;22.85;;;;;;;;;;5095228;28;20235;-77
2023/01/27 09:16:42;;;;;;;25.30;23.80;;;;;;;;;;5100676;28;20731;-87
2023/01/27 09:19:09;;;;;;;23.23;21.75;;;;;;;;;;5101752;28;20266;-89
2023/01/27 09:21:36;;;;;;;23.67;22.15;;;;;;;;;;5100232;28;20205;-77
2023/01/27 09:24:03;;;;;;;24.13;22.63;;;;;;;;;;5094875;28;20238;-78
2023/01/27 09:26:30;;;;;;;24.25;22.85;;;;;;;;;;5095048;28;20627;-77
2023/01/27 09:28:58;;;;;;;23.63;22.05;;;;;;;;;;5095530;28;20204;-77
2023/01/27 09:31:25;;;;;;;22.90;21.70;;;;;;;;;;5094310;28;20205;-77
2023/01/27 09:33:52;;;;;;;23.95;22.65;;;;;;;;;;5095177;28;20732;-78
2023/01/27 09:36:20;;;;;;;24.00;22.70;;;;;;;;;;5095042;28;20229;-78
2023/01/27 09:38:50;;;;;;;24.23;22.92;;;;;;;;;;5095468;28;20234;-77
2023/01/27 09:41:28;;;;;;;23.17;21.88;;;;;;;;;;5094909;28;20259;-78
2023/01/27 09:44:05;;;;;;;24.80;23.48;;;;;;;;;;5095096;28;20275;-78
2023/01/27 09:46:49;;;;;;;25.08;23.67;;;;;;;;;;5094406;28;20213;-77
2023/01/27 09:49:31;;;;;;;24.85;23.45;;;;;;;;;;5094053;28;20209;-78
2023/01/27 09:52:05;;;;;;;23.90;22.52;;;;;;;;;;5094563;28;20192;-78
2023/01/27 09:54:37;;;;;;;24.05;22.77;;;;;;;;;;5095056;28;20281;-77
2023/01/27 09:57:09;;;;;;;23.17;21.98;;;;;;;;;;5094804;28;20198;-77
2023/01/27 09:59:56;;;;;;;22.35;21.23;;;;;;;;;;5094579;28;20975;-77
2023/01/27 10:02:31;;;;;;;22.15;21.05;;;;;;;;;;5093880;28;20209;-78
2023/01/27 10:05:07;;;;;;;22.40;21.13;;;;;;;;;;5094034;28;20225;-77
2023/01/27 10:07:41;;;;;;;22.83;21.63;;;;;;;;;;5094863;28;20209;-78
2023/01/27 10:10:16;;;;;;;22.10;21.00;;;;;;;;;;5094594;28;20230;-77
2023/01/27 10:12:52;;;;;;;21.67;20.58;;;;;;;;;;5095897;28;20197;-79
2023/01/27 10:15:31;;;;;;;23.25;21.85;;;;;;;;;;5095932;28;20566;-77
2023/01/27 10:18:02;;;;;;;21.25;20.25;;;;;;;;;;5094002;28;20208;-77
2023/01/27 10:20:31;;;;;;;21.52;20.40;;;;;;;;;;5094741;28;20705;-81
2023/01/27 10:23:03;;;;;;;21.98;20.67;;;;;;;;;;5094733;28;20208;-77
2023/01/27 10:25:38;;;;;;;22.70;21.25;;;;;;;;;;5093295;28;20218;-77
2023/01/27 10:28:11;;;;;;;22.15;20.95;;;;;;;;;;5094401;28;20189;-78
2023/01/27 10:30:41;;;;;;;22.00;20.70;;;;;;;;;;5094281;28;20262;-77
2023/01/27 10:33:14;;;;;;;22.30;20.95;;;;;;;;;;5093485;28;20189;-76
2023/01/27 10:35:46;;;;;;;22.90;21.58;;;;;;;;;;5092989;28;21042;-77
2023/01/27 10:38:17;;;;;;;21.20;20.10;;;;;;;;;;5093621;28;20229;-86
2023/01/27 10:40:48;;;;;;;21.55;20.30;;;;;;;;;;5094140;28;20208;-77
2023/01/27 10:43:17;;;;;;;21.73;20.52;;;;;;;;;;5093324;28;20190;-77
2023/01/27 10:45:49;;;;;;;22.77;21.30;;;;;;;;;;5093733;28;20302;-78
2023/01/27 10:48:26;;;;;;;21.10;19.98;;;;;;;;;;5078879;28;20197;-76
2023/01/27 10:50:56;;;;;;;21.73;20.63;;;;;;;;;;5073564;28;20206;-77
2023/01/27 10:53:27;;;;;;;21.13;20.02;;;;;;;;;;5072501;28;20251;-77
2023/01/27 10:55:59;;;;;;;21.88;20.58;;;;;;;;;;5073024;28;20716;-77
2023/01/27 10:58:32;;;;;;;21.25;20.05;;;;;;;;;;5073190;28;20206;-78
2023/01/27 11:01:04;;;;;;;21.00;19.90;;;;;;;;;;5071960;28;20214;-78
2023/01/27 11:03:33;;;;;;;20.67;19.58;;;;;;;;;;5072614;28;20229;-77
2023/01/27 11:06:04;;;;;;;20.87;19.77;;;;;;;;;;5072951;28;20730;-77
2023/01/27 11:08:31;;;;;;;21.63;20.52;;;;;;;;;;5073239;28;20447;-76
2023/01/27 11:13:46;;;;;;;19.63;18.63;;;;;;;;;;5071441;28;20559;-77
2023/01/27 11:16:16;;;;;;;20.77;19.67;;;;;;;;;;5073140;28;20223;-76
2023/01/27 11:18:44;;;;;;;21.23;20.13;;;;;;;;;;5072824;28;20222;-77
2023/01/27 11:21:15;;;;;;;21.10;19.80;;;;;;;;;;5072578;28;20210;-78
2023/01/27 11:23:44;;;;;;;20.05;19.05;;;;;;;;;;5072833;28;20616;-76
2023/01/27 11:26:16;;;;;;;20.52;19.42;;;;;;;;;;5072720;28;20261;-78
2023/01/27 11:28:47;;;;;;;20.40;19.40;;;;;;;;;;5072632;28;20260;-77
2023/01/27 11:31:19;;;;;;;20.15;19.05;;;;;;;;;;5072436;28;20720;-78
2023/01/27 11:33:53;;;;;;;20.30;19.23;;;;;;;;;;5073281;28;20191;-78
2023/01/27 11:36:21;;;;;;;20.08;18.98;;;;;;;;;;5072833;28;20236;-79
2023/01/27 11:38:48;;;;;;;21.20;20.00;;;;;;;;;;5072846;28;20222;-77
2023/01/27 11:41:15;;;;;;;20.92;19.85;;;;;;;;;;5072586;28;20557;-77
2023/01/27 11:43:42;;;;;;;20.95;19.85;;;;;;;;;;5074500;28;20214;-81
2023/01/27 11:46:12;;;;;;;21.42;20.33;;;;;;;;;;5077258;28;20235;-85
2023/01/27 11:48:42;;;;;;;21.20;20.10;;;;;;;;;;5077774;28;20206;-83
2023/01/27 11:51:14;;;;;;;20.45;19.45;;;;;;;;;;5078148;28;20271;-83
2023/01/27 11:53:42;;;;;;;21.25;20.17;;;;;;;;;;5077529;28;20233;-83
2023/01/27 11:56:12;;;;;;;21.42;20.30;;;;;;;;;;5077452;28;20765;-84
2023/01/27 11:58:41;;;;;;;21.02;19.83;;;;;;;;;;5077073;28;20286;-83
2023/01/27 12:01:12;;;;;;;21.23;20.13;;;;;;;;;;5076699;28;20207;-84
2023/01/27 12:03:48;;;;;;;21.58;20.27;;;;;;;;;;5077158;28;20218;-83
2023/01/27 12:06:16;;;;;;;20.73;19.63;;;;;;;;;;5076363;28;20226;-83
2023/01/27 12:08:44;;;;;;;21.10;19.90;;;;;;;;;;5076257;28;20593;-82
2023/01/27 12:11:18;;;;;;;21.27;20.17;;;;;;;;;;5078293;28;20289;-84
2023/01/27 12:13:48;;;;;;;21.10;20.00;;;;;;;;;;5080877;28;20267;-83
2023/01/27 12:16:16;;;;;;;20.70;19.50;;;;;;;;;;5080280;28;20703;-83
2023/01/27 12:18:49;;;;;;;21.45;20.35;;;;;;;;;;5080811;28;20679;-82
2023/01/27 12:21:17;;;;;;;20.63;19.52;;;;;;;;;;5082060;28;20186;-85
2023/01/27 12:23:48;;;;;;;21.13;20.00;;;;;;;;;;5081805;28;20225;-84
2023/01/27 12:26:15;;;;;;;20.73;19.63;;;;;;;;;;5080635;28;20292;-84
2023/01/27 12:28:43;;;;;;;21.80;20.50;;;;;;;;;;5081470;28;20208;-84
2023/01/27 12:31:11;;;;;;;21.38;20.08;;;;;;;;;;5081109;28;20213;-85
2023/01/27 12:33:39;;;;;;;20.60;19.50;;;;;;;;;;5081637;28;20214;-84
2023/01/27 12:36:12;;;;;;;20.70;19.60;;;;;;;;;;5080026;28;20223;-82
2023/01/27 12:38:44;;;;;;;20.40;19.30;;;;;;;;;;5081321;28;20225;-83
2023/01/27 12:41:13;;;;;;;20.20;19.10;;;;;;;;;;5081352;28;20191;-85
2023/01/27 12:43:50;;;;;;;21.45;20.30;;;;;;;;;;5080775;28;20679;-85
2023/01/27 12:46:21;;;;;;;20.55;19.48;;;;;;;;;;5081154;28;20260;-83
2023/01/27 12:48:49;;;;;;;21.38;20.27;;;;;;;;;;5081263;28;20214;-83
2023/01/27 12:51:19;;;;;;;19.65;18.65;;;;;;;;;;5081167;28;20206;-85
2023/01/27 12:53:48;;;;;;;20.60;19.50;;;;;;;;;;5080534;28;20194;-90
2023/01/27 12:56:17;;;;;;;20.45;19.35;;;;;;;;;;5079668;28;20261;-84
2023/01/27 12:58:44;;;;;;;20.85;19.65;;;;;;;;;;5080621;28;20209;-83
2023/01/27 13:01:28;;;;;;;20.65;19.45;;;;;;;;;;5080744;28;20210;-84
2023/01/27 13:03:57;;;;;;;21.33;19.88;;;;;;;;;;5080848;28;20211;-83
2023/01/27 13:06:30;;;;;;;20.23;19.13;;;;;;;;;;5080598;28;20788;-82
2023/01/27 13:08:58;;;;;;;20.58;19.45;;;;;;;;;;5080280;28;20210;-83
2023/01/27 13:11:31;;;;;;;20.33;19.23;;;;;;;;;;5083164;28;20202;-84
2023/01/27 13:13:58;;;;;;;21.00;19.90;;;;;;;;;;5082073;28;20240;-81
2023/01/27 13:16:26;;;;;;;21.67;19.77;;;;;;;;;;5080207;28;20276;-83
2023/01/27 13:18:54;;;;;;;20.45;19.45;;;;;;;;;;5082356;28;20233;-90
2023/01/27 13:21:24;;;;;;;20.98;19.70;;;;;;;;;;5080895;28;20237;-79
2023/01/27 13:23:53;;;;;;;19.88;18.88;;;;;;;;;;5074674;28;20305;-78
2023/01/27 13:26:23;;;;;;;19.88;18.88;;;;;;;;;;5074690;28;20665;-78
2023/01/27 13:28:52;;;;;;;19.40;18.40;;;;;;;;;;5075499;28;20280;-78
2023/01/27 13:31:21;;;;;;;20.38;19.17;;;;;;;;;;5075105;28;20206;-79
2023/01/27 13:33:50;;;;;;;20.42;19.42;;;;;;;;;;5077544;28;20720;-80
2023/01/27 13:36:21;;;;;;;20.20;19.10;;;;;;;;;;5076605;28;20283;-78
2023/01/27 13:38:52;;;;;;;20.73;19.63;;;;;;;;;;5075441;28;20245;-78
2023/01/27 13:41:23;;;;;;;21.00;19.75;;;;;;;;;;5073447;28;20473;-79
2023/01/27 13:43:53;;;;;;;19.70;18.70;;;;;;;;;;5075021;28;20196;-78
2023/01/27 13:46:23;;;;;;;19.70;18.70;;;;;;;;;;5075343;28;20234;-77
2023/01/27 13:48:53;;;;;;;20.80;19.60;;;;;;;;;;5075155;28;20194;-77
2023/01/27 13:51:21;;;;;;;20.27;19.00;;;;;;;;;;5074803;28;20249;-79
2023/01/27 13:53:50;;;;;;;20.10;19.10;;;;;;;;;;5075788;28;20683;-78
2023/01/27 13:56:27;;;;;;;20.42;19.23;;;;;;;;;;5076441;28;20761;-78
2023/01/27 13:59:01;;;;;;;19.92;18.83;;;;;;;;;;5075053;28;20187;-79
2023/01/27 14:01:32;;;;;;;21.58;20.38;;;;;;;;;;5074879;28;20191;-78
2023/01/27 14:04:17;;;;;;;21.25;19.85;;;;;;;;;;5075446;28;20245;-78
2023/01/27 14:06:51;;;;;;;20.73;19.42;;;;;;;;;;5075291;28;20213;-78
2023/01/27 14:09:23;;;;;;;20.60;19.50;;;;;;;;;;5075341;28;20698;-78
2023/01/27 14:11:55;;;;;;;20.02;18.90;;;;;;;;;;5076320;28;20248;-78
2023/01/27 14:14:28;;;;;;;20.52;19.35;;;;;;;;;;5076827;28;20599;-78
2023/01/27 14:17:10;;;;;;;20.80;19.70;;;;;;;;;;5075485;28;20198;-79
2023/01/27 14:19:40;;;;;;;20.80;19.70;;;;;;;;;;5071166;28;20230;-79
2023/01/27 14:22:12;;;;;;;21.05;19.95;;;;;;;;;;5074910;28;20261;-78
2023/01/27 14:24:42;;;;;;;20.45;19.35;;;;;;;;;;5076893;28;20712;-80
2023/01/27 14:27:12;;;;;;;20.55;19.45;;;;;;;;;;5079560;28;20194;-79
2023/01/27 14:29:43;;;;;;;21.25;19.92;;;;;;;;;;5080168;28;20203;-79
2023/01/27 14:32:15;;;;;;;20.02;18.92;;;;;;;;;;5079525;28;20206;-79
2023/01/27 14:35:04;;;;;;;20.90;19.63;;;;;;;;;;5078413;28;20230;-80
2023/01/27 14:37:33;;;;;;;19.90;18.80;;;;;;;;;;5078734;28;20218;-80
2023/01/27 14:40:07;;;;;;;20.02;18.92;;;;;;;;;;5078574;28;20252;-80
2023/01/27 14:42:38;;;;;;;20.33;19.23;;;;;;;;;;5077864;28;20191;-80
2023/01/27 14:45:07;;;;;;;20.42;19.33;;;;;;;;;;5078405;28;20260;-81
2023/01/27 14:47:38;;;;;;;21.77;20.48;;;;;;;;;;5080008;28;20210;-81
2023/01/27 14:50:14;;;;;;;21.00;19.90;;;;;;;;;;5079135;28;20195;-84
2023/01/27 14:52:45;;;;;;;20.40;19.40;;;;;;;;;;5077295;28;20293;-84
2023/01/27 14:55:19;;;;;;;20.70;19.50;;;;;;;;;;5077936;28;20237;-82
2023/01/27 14:57:51;;;;;;;19.85;18.85;;;;;;;;;;5078061;28;20205;-81
2023/01/27 15:00:26;;;;;;;20.10;19.00;;;;;;;;;;5077572;28;20260;-80
2023/01/27 15:02:56;;;;;;;20.50;19.40;;;;;;;;;;5077459;28;20270;-84
2023/01/27 15:05:29;;;;;;;20.85;19.75;;;;;;;;;;5078156;28;20646;-85
2023/01/27 15:07:58;;;;;;;20.23;19.02;;;;;;;;;;5078475;28;20194;-82